sensor_id;sensor_type;location;lat;lon;timestamp;temperature;humidity
73509;SHT30;61750;55.036;73.312;2022-08-21T00:01:40;24.40;49.75
73509;SHT30;61750;55.036;73.312;2022-08-21T00:04:07;24.43;49.78
73509;SHT30;61750;55.036;73.312;2022-08-21T00:06:42;24.41;49.78
73509;SHT30;61750;55.036;73.312;2022-08-21T00:09:08;24.41;49.75
73509;SHT30;61750;55.036;73.312;2022-08-21T00:11:36;24.43;49.78
73509;SHT30;61750;55.036;73.312;2022-08-21T00:14:09;24.43;49.81
73509;SHT30;61750;55.036;73.312;2022-08-21T00:16:36;24.43;49.82
73509;SHT30;61750;55.036;73.312;2022-08-21T00:19:02;24.43;49.72
73509;SHT30;61750;55.036;73.312;2022-08-21T00:21:29;24.40;49.77
73509;SHT30;61750;55.036;73.312;2022-08-21T00:23:55;24.43;49.73
73509;SHT30;61750;55.036;73.312;2022-08-21T00:26:26;24.39;49.72
73509;SHT30;61750;55.036;73.312;2022-08-21T00:28:52;24.40;50.10
73509;SHT30;61750;55.036;73.312;2022-08-21T00:31:29;24.49;50.07
73509;SHT30;61750;55.036;73.312;2022-08-21T00:33:55;24.47;49.89
73509;SHT30;61750;55.036;73.312;2022-08-21T00:36:27;24.49;49.91
73509;SHT30;61750;55.036;73.312;2022-08-21T00:38:53;24.47;50.00
73509;SHT30;61750;55.036;73.312;2022-08-21T00:41:27;24.44;50.03
73509;SHT30;61750;55.036;73.312;2022-08-21T00:43:54;24.44;50.05
73509;SHT30;61750;55.036;73.312;2022-08-21T00:46:26;24.46;49.98
73509;SHT30;61750;55.036;73.312;2022-08-21T00:48:52;24.46;49.92
73509;SHT30;61750;55.036;73.312;2022-08-21T00:51:32;24.44;49.86
73509;SHT30;61750;55.036;73.312;2022-08-21T00:54:01;24.46;49.81
73509;SHT30;61750;55.036;73.312;2022-08-21T00:56:33;24.43;49.78
73509;SHT30;61750;55.036;73.312;2022-08-21T00:59:00;24.46;49.71
73509;SHT30;61750;55.036;73.312;2022-08-21T01:01:27;24.41;49.73
73509;SHT30;61750;55.036;73.312;2022-08-21T01:03:53;24.41;49.73
73509;SHT30;61750;55.036;73.312;2022-08-21T01:06:26;24.41;49.73
73509;SHT30;61750;55.036;73.312;2022-08-21T01:08:53;24.40;49.70
73509;SHT30;61750;55.036;73.312;2022-08-21T01:11:27;24.40;49.79
73509;SHT30;61750;55.036;73.312;2022-08-21T01:13:53;24.40;49.78
73509;SHT30;61750;55.036;73.312;2022-08-21T01:16:26;24.40;49.79
73509;SHT30;61750;55.036;73.312;2022-08-21T01:18:52;24.41;49.80
73509;SHT30;61750;55.036;73.312;2022-08-21T01:21:27;24.44;49.71
73509;SHT30;61750;55.036;73.312;2022-08-21T01:24:04;24.41;49.75
73509;SHT30;61750;55.036;73.312;2022-08-21T01:26:33;24.43;49.76
73509;SHT30;61750;55.036;73.312;2022-08-21T01:29:37;24.43;49.77
73509;SHT30;61750;55.036;73.312;2022-08-21T01:32:11;24.46;49.91
73509;SHT30;61750;55.036;73.312;2022-08-21T01:34:43;24.46;49.76
73509;SHT30;61750;55.036;73.312;2022-08-21T01:37:09;24.47;49.72
73509;SHT30;61750;55.036;73.312;2022-08-21T01:39:39;24.47;49.66
73509;SHT30;61750;55.036;73.312;2022-08-21T01:42:06;24.49;49.66
73509;SHT30;61750;55.036;73.312;2022-08-21T01:44:31;24.49;49.67
73509;SHT30;61750;55.036;73.312;2022-08-21T01:47:00;24.53;49.59
73509;SHT30;61750;55.036;73.312;2022-08-21T01:49:37;24.53;49.62
73509;SHT30;61750;55.036;73.312;2022-08-21T01:52:04;24.52;49.64
73509;SHT30;61750;55.036;73.312;2022-08-21T01:54:30;24.50;49.70
73509;SHT30;61750;55.036;73.312;2022-08-21T01:56:58;24.52;49.66
73509;SHT30;61750;55.036;73.312;2022-08-21T01:59:25;24.52;49.64
73509;SHT30;61750;55.036;73.312;2022-08-21T02:01:52;24.52;49.65
73509;SHT30;61750;55.036;73.312;2022-08-21T02:04:20;24.53;49.57
73509;SHT30;61750;55.036;73.312;2022-08-21T02:06:46;24.52;49.63
73509;SHT30;61750;55.036;73.312;2022-08-21T02:09:13;24.55;49.60
73509;SHT30;61750;55.036;73.312;2022-08-21T02:11:40;24.53;49.63
73509;SHT30;61750;55.036;73.312;2022-08-21T02:14:11;24.55;49.57
73509;SHT30;61750;55.036;73.312;2022-08-21T02:16:39;24.53;49.53
73509;SHT30;61750;55.036;73.312;2022-08-21T02:19:05;24.55;49.47
73509;SHT30;61750;55.036;73.312;2022-08-21T02:21:31;24.56;49.54
73509;SHT30;61750;55.036;73.312;2022-08-21T02:23:57;24.59;49.44
73509;SHT30;61750;55.036;73.312;2022-08-21T02:26:26;24.59;49.53
73509;SHT30;61750;55.036;73.312;2022-08-21T02:28:53;24.56;49.51
73509;SHT30;61750;55.036;73.312;2022-08-21T02:31:26;24.57;49.53
73509;SHT30;61750;55.036;73.312;2022-08-21T02:33:52;24.60;49.56
73509;SHT30;61750;55.036;73.312;2022-08-21T02:36:27;24.61;49.62
73509;SHT30;61750;55.036;73.312;2022-08-21T02:38:53;24.63;49.71
73509;SHT30;61750;55.036;73.312;2022-08-21T02:41:27;24.57;49.83
73509;SHT30;61750;55.036;73.312;2022-08-21T02:43:53;24.61;49.84
73509;SHT30;61750;55.036;73.312;2022-08-21T02:46:26;24.60;49.81
73509;SHT30;61750;55.036;73.312;2022-08-21T02:48:52;24.59;49.85
73509;SHT30;61750;55.036;73.312;2022-08-21T02:51:26;24.56;49.80
73509;SHT30;61750;55.036;73.312;2022-08-21T02:53:52;24.59;49.89
73509;SHT30;61750;55.036;73.312;2022-08-21T02:56:26;24.60;49.86
73509;SHT30;61750;55.036;73.312;2022-08-21T02:58:52;24.57;49.89
73509;SHT30;61750;55.036;73.312;2022-08-21T03:01:26;24.57;49.85
73509;SHT30;61750;55.036;73.312;2022-08-21T03:03:58;24.56;49.86
73509;SHT30;61750;55.036;73.312;2022-08-21T03:06:26;24.57;49.90
73509;SHT30;61750;55.036;73.312;2022-08-21T03:08:52;24.59;49.85
73509;SHT30;61750;55.036;73.312;2022-08-21T03:11:27;24.60;49.76
73509;SHT30;61750;55.036;73.312;2022-08-21T03:14:03;24.59;49.85
73509;SHT30;61750;55.036;73.312;2022-08-21T03:16:30;24.60;49.87
73509;SHT30;61750;55.036;73.312;2022-08-21T03:18:56;24.59;49.87
73509;SHT30;61750;55.036;73.312;2022-08-21T03:21:26;24.57;49.88
73509;SHT30;61750;55.036;73.312;2022-08-21T03:24:04;24.59;49.86
73509;SHT30;61750;55.036;73.312;2022-08-21T03:26:30;24.60;49.86
73509;SHT30;61750;55.036;73.312;2022-08-21T03:28:56;24.60;49.90
73509;SHT30;61750;55.036;73.312;2022-08-21T03:31:28;24.60;49.88
73509;SHT30;61750;55.036;73.312;2022-08-21T03:33:57;24.57;49.86
73509;SHT30;61750;55.036;73.312;2022-08-21T03:36:26;24.59;49.91
73509;SHT30;61750;55.036;73.312;2022-08-21T03:38:52;24.59;49.90
73509;SHT30;61750;55.036;73.312;2022-08-21T03:41:27;24.55;49.93
73509;SHT30;61750;55.036;73.312;2022-08-21T03:43:53;24.55;50.01
73509;SHT30;61750;55.036;73.312;2022-08-21T03:46:26;24.55;50.05
73509;SHT30;61750;55.036;73.312;2022-08-21T03:48:52;24.56;50.19
73509;SHT30;61750;55.036;73.312;2022-08-21T03:51:26;24.57;50.33
73509;SHT30;61750;55.036;73.312;2022-08-21T03:53:52;24.59;50.30
73509;SHT30;61750;55.036;73.312;2022-08-21T03:56:26;24.57;50.27
73509;SHT30;61750;55.036;73.312;2022-08-21T03:58:52;24.60;50.24
73509;SHT30;61750;55.036;73.312;2022-08-21T04:01:26;24.60;50.19
73509;SHT30;61750;55.036;73.312;2022-08-21T04:03:52;24.61;50.19
73509;SHT30;61750;55.036;73.312;2022-08-21T04:06:26;24.66;50.07
73509;SHT30;61750;55.036;73.312;2022-08-21T04:08:53;24.63;50.20
73509;SHT30;61750;55.036;73.312;2022-08-21T04:11:27;24.63;50.23
73509;SHT30;61750;55.036;73.312;2022-08-21T04:13:53;24.52;50.23
73509;SHT30;61750;55.036;73.312;2022-08-21T04:16:26;24.23;50.96
73509;SHT30;61750;55.036;73.312;2022-08-21T04:19:02;24.16;51.27
73509;SHT30;61750;55.036;73.312;2022-08-21T04:21:29;24.06;51.64
73509;SHT30;61750;55.036;73.312;2022-08-21T04:23:55;23.99;51.18
73509;SHT30;61750;55.036;73.312;2022-08-21T04:26:26;23.84;51.94
73509;SHT30;61750;55.036;73.312;2022-08-21T04:28:53;23.68;52.60
73509;SHT30;61750;55.036;73.312;2022-08-21T04:31:27;23.59;52.62
73509;SHT30;61750;55.036;73.312;2022-08-21T04:33:54;23.50;53.01
73509;SHT30;61750;55.036;73.312;2022-08-21T04:36:26;23.38;52.98
73509;SHT30;61750;55.036;73.312;2022-08-21T04:39:03;23.37;53.49
73509;SHT30;61750;55.036;73.312;2022-08-21T04:41:29;23.32;53.61
73509;SHT30;61750;55.036;73.312;2022-08-21T04:44:01;23.37;53.07
73509;SHT30;61750;55.036;73.312;2022-08-21T04:46:27;23.30;53.42
73509;SHT30;61750;55.036;73.312;2022-08-21T04:48:53;23.17;53.66
73509;SHT30;61750;55.036;73.312;2022-08-21T04:51:33;23.30;53.68
73509;SHT30;61750;55.036;73.312;2022-08-21T04:54:06;23.41;53.28
73509;SHT30;61750;55.036;73.312;2022-08-21T04:56:47;23.37;53.41
73509;SHT30;61750;55.036;73.312;2022-08-21T04:59:19;23.41;53.22
73509;SHT30;61750;55.036;73.312;2022-08-21T05:01:49;23.35;53.54
73509;SHT30;61750;55.036;73.312;2022-08-21T05:04:18;23.34;53.51
73509;SHT30;61750;55.036;73.312;2022-08-21T05:06:47;23.42;53.48
73509;SHT30;61750;55.036;73.312;2022-08-21T05:09:16;23.38;53.80
73509;SHT30;61750;55.036;73.312;2022-08-21T05:11:43;23.40;53.64
73509;SHT30;61750;55.036;73.312;2022-08-21T05:14:10;23.32;53.74
73509;SHT30;61750;55.036;73.312;2022-08-21T05:16:37;23.22;53.82
73509;SHT30;61750;55.036;73.312;2022-08-21T05:19:07;23.21;53.73
73509;SHT30;61750;55.036;73.312;2022-08-21T05:21:41;23.30;53.77
73509;SHT30;61750;55.036;73.312;2022-08-21T05:24:07;23.34;53.66
73509;SHT30;61750;55.036;73.312;2022-08-21T05:26:34;23.34;53.86
73509;SHT30;61750;55.036;73.312;2022-08-21T05:29:10;23.21;54.20
73509;SHT30;61750;55.036;73.312;2022-08-21T05:31:37;23.08;54.46
73509;SHT30;61750;55.036;73.312;2022-08-21T05:34:09;23.03;54.75
73509;SHT30;61750;55.036;73.312;2022-08-21T05:36:35;22.99;54.93
73509;SHT30;61750;55.036;73.312;2022-08-21T05:39:11;22.94;55.18
73509;SHT30;61750;55.036;73.312;2022-08-21T05:41:48;22.83;55.35
73509;SHT30;61750;55.036;73.312;2022-08-21T05:44:24;22.81;55.59
73509;SHT30;61750;55.036;73.312;2022-08-21T05:47:02;22.80;55.78
73509;SHT30;61750;55.036;73.312;2022-08-21T05:49:34;22.83;55.78
73509;SHT30;61750;55.036;73.312;2022-08-21T05:52:01;22.80;55.78
73509;SHT30;61750;55.036;73.312;2022-08-21T05:54:27;22.80;55.85
73509;SHT30;61750;55.036;73.312;2022-08-21T05:56:53;22.80;56.01
73509;SHT30;61750;55.036;73.312;2022-08-21T05:59:29;22.77;55.97
73509;SHT30;61750;55.036;73.312;2022-08-21T06:01:57;22.80;55.99
73509;SHT30;61750;55.036;73.312;2022-08-21T06:04:28;22.76;56.37
73509;SHT30;61750;55.036;73.312;2022-08-21T06:06:55;22.79;56.33
73509;SHT30;61750;55.036;73.312;2022-08-21T06:09:21;22.79;56.37
73509;SHT30;61750;55.036;73.312;2022-08-21T06:11:51;22.79;56.02
73509;SHT30;61750;55.036;73.312;2022-08-21T06:14:28;22.80;56.05
73509;SHT30;61750;55.036;73.312;2022-08-21T06:16:54;22.79;56.01
73509;SHT30;61750;55.036;73.312;2022-08-21T06:19:25;22.80;56.12
73509;SHT30;61750;55.036;73.312;2022-08-21T06:21:51;22.76;56.13
73509;SHT30;61750;55.036;73.312;2022-08-21T06:24:18;22.80;55.68
73509;SHT30;61750;55.036;73.312;2022-08-21T06:26:54;22.86;55.29
73509;SHT30;61750;55.036;73.312;2022-08-21T06:29:26;22.94;55.75
73509;SHT30;61750;55.036;73.312;2022-08-21T06:31:52;22.74;57.41
73509;SHT30;61750;55.036;73.312;2022-08-21T06:34:18;22.74;57.17
73509;SHT30;61750;55.036;73.312;2022-08-21T06:36:45;22.77;56.58
73509;SHT30;61750;55.036;73.312;2022-08-21T06:39:16;22.80;56.66
73509;SHT30;61750;55.036;73.312;2022-08-21T06:41:47;22.84;56.70
73509;SHT30;61750;55.036;73.312;2022-08-21T06:44:18;22.87;55.90
73509;SHT30;61750;55.036;73.312;2022-08-21T06:46:54;22.89;57.10
73509;SHT30;61750;55.036;73.312;2022-08-21T06:49:20;22.79;57.89
73509;SHT30;61750;55.036;73.312;2022-08-21T06:51:56;22.63;58.02
73509;SHT30;61750;55.036;73.312;2022-08-21T06:54:22;22.61;58.21
73509;SHT30;61750;55.036;73.312;2022-08-21T06:56:48;22.67;57.75
73509;SHT30;61750;55.036;73.312;2022-08-21T06:59:14;22.74;57.02
73509;SHT30;61750;55.036;73.312;2022-08-21T07:01:40;22.77;56.99
73509;SHT30;61750;55.036;73.312;2022-08-21T07:04:07;22.86;56.56
73509;SHT30;61750;55.036;73.312;2022-08-21T07:06:37;22.90;56.41
73509;SHT30;61750;55.036;73.312;2022-08-21T07:09:03;22.93;56.35
73509;SHT30;61750;55.036;73.312;2022-08-21T07:11:35;22.97;56.77
73509;SHT30;61750;55.036;73.312;2022-08-21T07:14:06;22.86;57.26
73509;SHT30;61750;55.036;73.312;2022-08-21T07:16:32;22.77;57.27
73509;SHT30;61750;55.036;73.312;2022-08-21T07:19:08;22.81;56.83
73509;SHT30;61750;55.036;73.312;2022-08-21T07:21:34;22.87;56.54
73509;SHT30;61750;55.036;73.312;2022-08-21T07:24:00;22.84;56.68
73509;SHT30;61750;55.036;73.312;2022-08-21T07:26:27;22.70;57.06
73509;SHT30;61750;55.036;73.312;2022-08-21T07:28:58;22.60;57.54
73509;SHT30;61750;55.036;73.312;2022-08-21T07:31:26;22.57;57.46
73509;SHT30;61750;55.036;73.312;2022-08-21T07:33:52;22.59;57.24
73509;SHT30;61750;55.036;73.312;2022-08-21T07:36:26;22.67;56.89
73509;SHT30;61750;55.036;73.312;2022-08-21T07:38:52;22.74;56.80
73509;SHT30;61750;55.036;73.312;2022-08-21T07:41:28;22.74;56.78
73509;SHT30;61750;55.036;73.312;2022-08-21T07:43:55;22.73;56.58
73509;SHT30;61750;55.036;73.312;2022-08-21T07:46:27;22.61;56.64
73509;SHT30;61750;55.036;73.312;2022-08-21T07:48:54;22.60;56.83
73509;SHT30;61750;55.036;73.312;2022-08-21T07:51:27;22.67;56.66
73509;SHT30;61750;55.036;73.312;2022-08-21T07:53:55;22.77;56.58
73509;SHT30;61750;55.036;73.312;2022-08-21T07:56:32;22.87;56.09
73509;SHT30;61750;55.036;73.312;2022-08-21T07:58:58;22.96;56.08
73509;SHT30;61750;55.036;73.312;2022-08-21T08:01:26;22.97;55.85
73509;SHT30;61750;55.036;73.312;2022-08-21T08:03:52;22.96;55.49
73509;SHT30;61750;55.036;73.312;2022-08-21T08:06:26;22.80;56.03
73509;SHT30;61750;55.036;73.312;2022-08-21T08:08:52;22.73;56.33
73509;SHT30;61750;55.036;73.312;2022-08-21T08:11:27;22.90;55.86
73509;SHT30;61750;55.036;73.312;2022-08-21T08:13:53;22.86;55.60
73509;SHT30;61750;55.036;73.312;2022-08-21T08:16:26;22.74;55.65
73509;SHT30;61750;55.036;73.312;2022-08-21T08:18:52;22.61;55.77
73509;SHT30;61750;55.036;73.312;2022-08-21T08:21:26;22.61;55.95
73509;SHT30;61750;55.036;73.312;2022-08-21T08:23:54;22.66;56.01
73509;SHT30;61750;55.036;73.312;2022-08-21T08:26:26;22.70;55.90
73509;SHT30;61750;55.036;73.312;2022-08-21T08:28:52;22.79;55.73
73509;SHT30;61750;55.036;73.312;2022-08-21T08:31:26;22.84;55.63
73509;SHT30;61750;55.036;73.312;2022-08-21T08:33:52;22.91;55.20
73509;SHT30;61750;55.036;73.312;2022-08-21T08:36:34;23.00;54.81
73509;SHT30;61750;55.036;73.312;2022-08-21T08:39:02;22.91;54.23
73509;SHT30;61750;55.036;73.312;2022-08-21T08:41:29;22.86;55.14
73509;SHT30;61750;55.036;73.312;2022-08-21T08:44:03;22.96;54.85
73509;SHT30;61750;55.036;73.312;2022-08-21T08:46:41;22.96;54.75
73509;SHT30;61750;55.036;73.312;2022-08-21T08:49:18;22.93;54.82
73509;SHT30;61750;55.036;73.312;2022-08-21T08:54:18;22.89;53.79
73509;SHT30;61750;55.036;73.312;2022-08-21T08:56:51;22.86;53.70
73509;SHT30;61750;55.036;73.312;2022-08-21T08:59:32;22.69;53.91
73509;SHT30;61750;55.036;73.312;2022-08-21T09:02:01;22.66;54.33
73509;SHT30;61750;55.036;73.312;2022-08-21T09:04:28;22.59;54.42
73509;SHT30;61750;55.036;73.312;2022-08-21T09:07:35;22.49;53.99
73509;SHT30;61750;55.036;73.312;2022-08-21T09:10:20;22.40;54.16
73509;SHT30;61750;55.036;73.312;2022-08-21T09:15:53;22.30;54.26
73509;SHT30;61750;55.036;73.312;2022-08-21T09:20:59;22.23;54.33
73509;SHT30;61750;55.036;73.312;2022-08-21T09:23:46;22.23;54.36
73509;SHT30;61750;55.036;73.312;2022-08-21T09:26:18;22.23;54.34
73509;SHT30;61750;55.036;73.312;2022-08-21T09:28:45;22.20;53.90
73509;SHT30;61750;55.036;73.312;2022-08-21T09:31:26;22.19;54.08
73509;SHT30;61750;55.036;73.312;2022-08-21T09:34:07;22.15;54.07
73509;SHT30;61750;55.036;73.312;2022-08-21T09:39:24;22.09;54.34
73509;SHT30;61750;55.036;73.312;2022-08-21T09:41:59;22.04;54.21
73509;SHT30;61750;55.036;73.312;2022-08-21T09:44:31;22.05;54.39
73509;SHT30;61750;55.036;73.312;2022-08-21T09:46:58;22.06;54.31
73509;SHT30;61750;55.036;73.312;2022-08-21T09:49:29;22.08;54.68
73509;SHT30;61750;55.036;73.312;2022-08-21T09:51:57;22.06;54.82
73509;SHT30;61750;55.036;73.312;2022-08-21T09:54:33;22.06;54.75
73509;SHT30;61750;55.036;73.312;2022-08-21T09:57:28;21.99;54.56
73509;SHT30;61750;55.036;73.312;2022-08-21T10:00:26;21.99;54.11
73509;SHT30;61750;55.036;73.312;2022-08-21T10:02:53;21.95;53.83
73509;SHT30;61750;55.036;73.312;2022-08-21T10:05:20;21.88;53.84
73509;SHT30;61750;55.036;73.312;2022-08-21T10:07:49;21.88;53.84
73509;SHT30;61750;55.036;73.312;2022-08-21T10:10:36;21.86;53.83
73509;SHT30;61750;55.036;73.312;2022-08-21T10:13:13;21.89;54.03
73509;SHT30;61750;55.036;73.312;2022-08-21T10:16:15;21.85;54.24
73509;SHT30;61750;55.036;73.312;2022-08-21T10:21:33;21.86;54.14
73509;SHT30;61750;55.036;73.312;2022-08-21T10:24:07;21.88;53.83
73509;SHT30;61750;55.036;73.312;2022-08-21T10:26:45;21.88;53.98
73509;SHT30;61750;55.036;73.312;2022-08-21T10:35:00;21.89;53.59
73509;SHT30;61750;55.036;73.312;2022-08-21T10:37:50;21.77;53.15
73509;SHT30;61750;55.036;73.312;2022-08-21T10:40:29;21.77;53.44
73509;SHT30;61750;55.036;73.312;2022-08-21T10:48:42;21.99;53.88
73509;SHT30;61750;55.036;73.312;2022-08-21T10:54:00;22.08;53.08
73509;SHT30;61750;55.036;73.312;2022-08-21T10:56:32;22.13;53.13
73509;SHT30;61750;55.036;73.312;2022-08-21T10:59:33;22.13;53.43
73509;SHT30;61750;55.036;73.312;2022-08-21T11:02:13;22.12;52.72
73509;SHT30;61750;55.036;73.312;2022-08-21T11:04:50;22.05;52.89
73509;SHT30;61750;55.036;73.312;2022-08-21T11:09:55;22.13;53.59
73509;SHT30;61750;55.036;73.312;2022-08-21T11:12:46;22.17;53.37
73509;SHT30;61750;55.036;73.312;2022-08-21T11:15:33;22.17;52.96
73509;SHT30;61750;55.036;73.312;2022-08-21T11:20:51;22.16;51.53
73509;SHT30;61750;55.036;73.312;2022-08-21T11:23:44;22.19;52.65
73509;SHT30;61750;55.036;73.312;2022-08-21T11:26:33;22.16;51.76
73509;SHT30;61750;55.036;73.312;2022-08-21T11:40:37;22.20;51.62
73509;SHT30;61750;55.036;73.312;2022-08-21T11:49:30;22.23;50.26
73509;SHT30;61750;55.036;73.312;2022-08-21T11:52:18;22.23;49.37
73509;SHT30;61750;55.036;73.312;2022-08-21T11:58:07;22.19;49.79
73509;SHT30;61750;55.036;73.312;2022-08-21T12:00:29;22.22;50.18
73509;SHT30;61750;55.036;73.312;2022-08-21T12:03:11;22.19;50.00
73509;SHT30;61750;55.036;73.312;2022-08-21T12:05:42;22.17;48.85
73509;SHT30;61750;55.036;73.312;2022-08-21T12:08:14;22.13;49.48
73509;SHT30;61750;55.036;73.312;2022-08-21T12:10:58;22.08;47.99
73509;SHT30;61750;55.036;73.312;2022-08-21T12:13:30;21.94;48.55
73509;SHT30;61750;55.036;73.312;2022-08-21T12:16:13;21.94;48.87
73509;SHT30;61750;55.036;73.312;2022-08-21T12:18:40;21.94;48.80
73509;SHT30;61750;55.036;73.312;2022-08-21T12:21:23;21.95;48.61
73509;SHT30;61750;55.036;73.312;2022-08-21T12:27:30;21.96;49.27
73509;SHT30;61750;55.036;73.312;2022-08-21T12:30:01;21.98;49.79
73509;SHT30;61750;55.036;73.312;2022-08-21T12:32:46;22.01;49.68
73509;SHT30;61750;55.036;73.312;2022-08-21T12:35:18;22.04;49.04
73509;SHT30;61750;55.036;73.312;2022-08-21T12:37:57;22.01;49.88
73509;SHT30;61750;55.036;73.312;2022-08-21T12:40:43;21.98;49.09
73509;SHT30;61750;55.036;73.312;2022-08-21T12:43:32;21.94;48.86
73509;SHT30;61750;55.036;73.312;2022-08-21T12:45:59;21.96;48.49
73509;SHT30;61750;55.036;73.312;2022-08-21T12:48:52;21.91;47.77
73509;SHT30;61750;55.036;73.312;2022-08-21T12:51:29;21.92;49.89
73509;SHT30;61750;55.036;73.312;2022-08-21T12:53:58;21.94;47.48
73509;SHT30;61750;55.036;73.312;2022-08-21T12:56:28;21.91;49.34
73509;SHT30;61750;55.036;73.312;2022-08-21T12:59:10;21.96;49.84
73509;SHT30;61750;55.036;73.312;2022-08-21T13:01:49;21.99;49.21
73509;SHT30;61750;55.036;73.312;2022-08-21T13:04:32;21.98;49.66
73509;SHT30;61750;55.036;73.312;2022-08-21T13:07:00;22.01;49.75
73509;SHT30;61750;55.036;73.312;2022-08-21T13:09:29;22.01;48.56
73509;SHT30;61750;55.036;73.312;2022-08-21T13:11:57;21.94;47.56
73509;SHT30;61750;55.036;73.312;2022-08-21T13:14:36;21.89;48.57
73509;SHT30;61750;55.036;73.312;2022-08-21T13:17:05;21.92;48.68
73509;SHT30;61750;55.036;73.312;2022-08-21T13:19:33;21.96;48.57
73509;SHT30;61750;55.036;73.312;2022-08-21T13:22:01;21.92;48.22
73509;SHT30;61750;55.036;73.312;2022-08-21T13:24:34;21.89;48.03
73509;SHT30;61750;55.036;73.312;2022-08-21T13:27:02;21.89;48.15
73509;SHT30;61750;55.036;73.312;2022-08-21T13:29:31;21.88;47.91
73509;SHT30;61750;55.036;73.312;2022-08-21T13:32:03;21.86;47.94
73509;SHT30;61750;55.036;73.312;2022-08-21T13:34:34;21.81;47.83
73509;SHT30;61750;55.036;73.312;2022-08-21T13:37:04;21.81;47.94
73509;SHT30;61750;55.036;73.312;2022-08-21T13:39:32;21.78;47.83
73509;SHT30;61750;55.036;73.312;2022-08-21T13:42:02;21.77;47.72
73509;SHT30;61750;55.036;73.312;2022-08-21T13:44:36;21.75;47.63
73509;SHT30;61750;55.036;73.312;2022-08-21T13:47:06;21.71;47.24
73509;SHT30;61750;55.036;73.312;2022-08-21T13:49:38;21.66;47.12
73509;SHT30;61750;55.036;73.312;2022-08-21T13:52:15;21.62;47.05
73509;SHT30;61750;55.036;73.312;2022-08-21T13:54:42;21.62;46.59
73509;SHT30;61750;55.036;73.312;2022-08-21T13:57:29;21.65;46.73
73509;SHT30;61750;55.036;73.312;2022-08-21T14:02:44;21.61;46.28
73509;SHT30;61750;55.036;73.312;2022-08-21T14:05:25;21.59;46.14
73509;SHT30;61750;55.036;73.312;2022-08-21T14:08:03;21.57;46.01
73509;SHT30;61750;55.036;73.312;2022-08-21T14:10:31;21.54;45.86
73509;SHT30;61750;55.036;73.312;2022-08-21T14:13:05;21.51;46.03
73509;SHT30;61750;55.036;73.312;2022-08-21T14:15:34;21.47;45.86
73509;SHT30;61750;55.036;73.312;2022-08-21T14:18:15;21.48;45.87
73509;SHT30;61750;55.036;73.312;2022-08-21T14:21:02;21.44;45.89
73509;SHT30;61750;55.036;73.312;2022-08-21T14:23:29;21.42;45.82
73509;SHT30;61750;55.036;73.312;2022-08-21T14:25:57;21.41;45.87
73509;SHT30;61750;55.036;73.312;2022-08-21T14:28:39;21.40;45.92
73509;SHT30;61750;55.036;73.312;2022-08-21T14:31:18;21.38;45.98
73509;SHT30;61750;55.036;73.312;2022-08-21T14:33:47;21.40;45.79
73509;SHT30;61750;55.036;73.312;2022-08-21T14:36:14;21.35;45.73
73509;SHT30;61750;55.036;73.312;2022-08-21T14:38:41;21.37;45.74
73509;SHT30;61750;55.036;73.312;2022-08-21T14:41:23;21.35;45.66
73509;SHT30;61750;55.036;73.312;2022-08-21T14:43:50;21.32;45.81
73509;SHT30;61750;55.036;73.312;2022-08-21T14:46:27;21.31;45.75
73509;SHT30;61750;55.036;73.312;2022-08-21T14:48:59;21.31;45.78
73509;SHT30;61750;55.036;73.312;2022-08-21T14:51:26;21.28;45.75
73509;SHT30;61750;55.036;73.312;2022-08-21T14:53:58;21.30;45.70
73509;SHT30;61750;55.036;73.312;2022-08-21T14:56:25;21.28;45.87
73509;SHT30;61750;55.036;73.312;2022-08-21T14:58:52;21.26;45.81
73509;SHT30;61750;55.036;73.312;2022-08-21T15:01:21;21.26;45.79
73509;SHT30;61750;55.036;73.312;2022-08-21T15:03:48;21.26;45.69
73509;SHT30;61750;55.036;73.312;2022-08-21T15:06:16;21.23;45.77
73509;SHT30;61750;55.036;73.312;2022-08-21T15:08:43;21.21;45.62
73509;SHT30;61750;55.036;73.312;2022-08-21T15:11:11;21.20;45.50
73509;SHT30;61750;55.036;73.312;2022-08-21T15:13:38;21.20;45.36
73509;SHT30;61750;55.036;73.312;2022-08-21T15:16:05;21.15;45.26
73509;SHT30;61750;55.036;73.312;2022-08-21T15:18:34;21.12;45.41
73509;SHT30;61750;55.036;73.312;2022-08-21T15:21:00;21.11;45.30
73509;SHT30;61750;55.036;73.312;2022-08-21T15:23:26;21.12;45.27
73509;SHT30;61750;55.036;73.312;2022-08-21T15:25:58;21.10;45.26
73509;SHT30;61750;55.036;73.312;2022-08-21T15:28:25;21.08;45.17
73509;SHT30;61750;55.036;73.312;2022-08-21T15:30:52;21.06;45.06
73509;SHT30;61750;55.036;73.312;2022-08-21T15:33:18;21.04;45.04
73509;SHT30;61750;55.036;73.312;2022-08-21T15:35:49;21.01;44.98
73509;SHT30;61750;55.036;73.312;2022-08-21T15:38:25;21.00;44.98
73509;SHT30;61750;55.036;73.312;2022-08-21T15:41:03;20.99;44.85
73509;SHT30;61750;55.036;73.312;2022-08-21T15:43:39;20.97;44.90
73509;SHT30;61750;55.036;73.312;2022-08-21T15:46:10;20.97;44.73
73509;SHT30;61750;55.036;73.312;2022-08-21T15:48:43;20.94;44.63
73509;SHT30;61750;55.036;73.312;2022-08-21T15:51:17;20.91;44.55
73509;SHT30;61750;55.036;73.312;2022-08-21T15:53:43;20.93;44.42
73509;SHT30;61750;55.036;73.312;2022-08-21T15:56:21;20.90;44.30
73509;SHT30;61750;55.036;73.312;2022-08-21T15:58:50;20.90;44.10
73509;SHT30;61750;55.036;73.312;2022-08-21T16:01:32;20.90;44.23
73509;SHT30;61750;55.036;73.312;2022-08-21T16:03:58;20.89;44.07
73509;SHT30;61750;55.036;73.312;2022-08-21T16:06:25;20.89;43.96
73509;SHT30;61750;55.036;73.312;2022-08-21T16:08:51;20.84;44.30
73509;SHT30;61750;55.036;73.312;2022-08-21T16:11:17;20.84;44.52
73509;SHT30;61750;55.036;73.312;2022-08-21T16:13:49;20.84;44.51
73509;SHT30;61750;55.036;73.312;2022-08-21T16:16:19;20.87;44.76
73509;SHT30;61750;55.036;73.312;2022-08-21T16:18:55;20.87;44.84
73509;SHT30;61750;55.036;73.312;2022-08-21T16:21:21;20.87;44.59
73509;SHT30;61750;55.036;73.312;2022-08-21T16:23:47;20.86;44.74
73509;SHT30;61750;55.036;73.312;2022-08-21T16:26:16;20.86;44.49
73509;SHT30;61750;55.036;73.312;2022-08-21T16:28:55;20.83;44.41
73509;SHT30;61750;55.036;73.312;2022-08-21T16:31:23;20.81;44.33
73509;SHT30;61750;55.036;73.312;2022-08-21T16:33:54;20.79;43.87
73509;SHT30;61750;55.036;73.312;2022-08-21T16:36:21;20.80;44.34
73509;SHT30;61750;55.036;73.312;2022-08-21T16:38:48;20.80;44.64
73509;SHT30;61750;55.036;73.312;2022-08-21T16:41:15;20.80;44.61
73509;SHT30;61750;55.036;73.312;2022-08-21T16:43:43;20.81;44.69